createdAt,value
2022-11-28T00:04:38.823Z,175
2022-11-28T00:24:38.769Z,178
2022-11-28T00:44:38.817Z,181
2022-11-28T01:04:38.889Z,183
2022-11-28T01:24:38.886Z,187
2022-11-28T01:44:38.959Z,186
2022-11-28T02:04:38.928Z,183
2022-11-28T02:24:38.974Z,186
2022-11-28T02:44:38.972Z,186
2022-11-28T03:04:39.001Z,186
2022-11-28T03:24:39.099Z,187
2022-11-28T03:44:39.050Z,191
2022-11-28T04:04:39.099Z,192
2022-11-28T04:24:39.116Z,197
2022-11-28T04:44:39.140Z,190
2022-11-28T05:04:39.206Z,194
2022-11-28T05:24:39.216Z,192
2022-11-28T05:44:39.330Z,195
2022-11-28T06:04:39.336Z,196
2022-11-28T06:24:39.319Z,188
2022-11-28T06:44:39.311Z,197
2022-11-28T07:04:39.361Z,200
2022-11-28T07:24:39.354Z,199
2022-11-28T07:44:39.409Z,199
2022-11-28T08:04:42.703Z,198
2022-11-28T08:44:39.473Z,199
2022-11-28T09:04:39.518Z,198
2022-11-28T09:24:39.559Z,198
2022-11-28T09:44:39.575Z,200
2022-11-28T10:04:39.601Z,197
2022-11-28T10:24:39.618Z,194
2022-11-28T10:44:39.643Z,192
2022-11-28T11:04:39.710Z,192
2022-11-28T11:24:39.693Z,191
2022-11-28T11:44:39.729Z,185
2022-11-28T12:04:45.598Z,192
2022-11-28T12:24:39.780Z,190
2022-11-28T12:44:39.864Z,191
2022-11-28T13:04:39.831Z,184
2022-11-28T13:24:39.853Z,190
2022-11-28T13:44:39.869Z,182
2022-11-28T14:04:39.885Z,187
2022-11-28T14:24:39.923Z,186
2022-11-28T14:44:39.936Z,187
2022-11-28T15:04:39.959Z,186
2022-11-28T15:24:40.010Z,194
2022-11-28T15:44:40.140Z,185
2022-11-28T16:04:40.133Z,190
2022-11-28T16:24:40.067Z,190
2022-11-28T16:44:40.077Z,193
2022-11-28T17:04:40.139Z,190
2022-11-28T17:24:40.162Z,190
2022-11-28T17:44:40.163Z,188
2022-11-28T18:04:40.222Z,192
2022-11-28T18:24:40.267Z,192
2022-11-28T18:44:40.238Z,194
2022-11-28T19:04:40.296Z,195
2022-11-28T19:24:40.307Z,207
2022-11-28T19:44:40.394Z,215
2022-11-28T20:04:40.384Z,214
2022-11-28T20:24:41.407Z,207
2022-11-28T20:44:40.412Z,201
2022-11-28T21:04:40.416Z,204
2022-11-28T21:24:40.457Z,197
2022-11-28T22:04:40.508Z,197
2022-11-28T22:24:40.578Z,197
2022-11-28T22:44:40.544Z,206
2022-11-28T23:04:40.678Z,203
2022-11-28T23:24:40.699Z,205
2022-11-28T23:44:40.796Z,208
